sensor_id;sensor_type;location;lat;lon;timestamp;P1;durP1;ratioP1;P2;durP2;ratioP2
79074;SDS011;68476;42.710;23.388;2023-05-10T00:01:22;8.13;;;6.35;;
79074;SDS011;68476;42.710;23.388;2023-05-10T00:03:48;8.45;;;6.25;;
79074;SDS011;68476;42.710;23.388;2023-05-10T00:06:13;9.82;;;6.43;;
79074;SDS011;68476;42.710;23.388;2023-05-10T00:08:39;6.80;;;5.13;;
79074;SDS011;68476;42.710;23.388;2023-05-10T00:11:04;6.57;;;4.93;;
79074;SDS011;68476;42.710;23.388;2023-05-10T00:13:29;5.32;;;4.53;;
79074;SDS011;68476;42.710;23.388;2023-05-10T00:15:55;7.07;;;3.90;;
79074;SDS011;68476;42.710;23.388;2023-05-10T00:18:20;6.60;;;3.95;;
79074;SDS011;68476;42.710;23.388;2023-05-10T00:20:45;12.93;;;5.47;;
79074;SDS011;68476;42.710;23.388;2023-05-10T00:23:11;6.07;;;4.68;;
79074;SDS011;68476;42.710;23.388;2023-05-10T00:25:37;6.68;;;4.85;;
79074;SDS011;68476;42.710;23.388;2023-05-10T00:28:02;9.07;;;5.25;;
79074;SDS011;68476;42.710;23.388;2023-05-10T00:30:28;7.70;;;5.90;;
79074;SDS011;68476;42.710;23.388;2023-05-10T00:32:53;7.55;;;5.75;;
79074;SDS011;68476;42.710;23.388;2023-05-10T00:35:18;7.85;;;6.13;;
79074;SDS011;68476;42.710;23.388;2023-05-10T00:37:44;7.85;;;6.45;;
79074;SDS011;68476;42.710;23.388;2023-05-10T00:40:10;9.75;;;7.22;;
79074;SDS011;68476;42.710;23.388;2023-05-10T00:42:36;9.40;;;7.35;;
79074;SDS011;68476;42.710;23.388;2023-05-10T00:45:01;10.50;;;7.97;;
79074;SDS011;68476;42.710;23.388;2023-05-10T00:47:27;10.30;;;7.88;;
79074;SDS011;68476;42.710;23.388;2023-05-10T00:49:52;10.00;;;7.85;;
79074;SDS011;68476;42.710;23.388;2023-05-10T00:52:18;9.52;;;7.35;;
79074;SDS011;68476;42.710;23.388;2023-05-10T00:54:44;10.90;;;8.43;;
79074;SDS011;68476;42.710;23.388;2023-05-10T00:57:09;10.18;;;8.40;;
79074;SDS011;68476;42.710;23.388;2023-05-10T00:59:35;10.70;;;8.13;;
79074;SDS011;68476;42.710;23.388;2023-05-10T01:02:01;10.82;;;8.45;;
79074;SDS011;68476;42.710;23.388;2023-05-10T01:04:26;10.20;;;8.10;;
79074;SDS011;68476;42.710;23.388;2023-05-10T01:06:53;11.27;;;8.30;;
79074;SDS011;68476;42.710;23.388;2023-05-10T01:09:19;12.93;;;8.75;;
79074;SDS011;68476;42.710;23.388;2023-05-10T01:11:46;12.00;;;8.50;;
79074;SDS011;68476;42.710;23.388;2023-05-10T01:14:12;12.45;;;8.13;;
79074;SDS011;68476;42.710;23.388;2023-05-10T01:16:40;10.65;;;8.27;;
79074;SDS011;68476;42.710;23.388;2023-05-10T01:19:26;11.90;;;8.88;;
79074;SDS011;68476;42.710;23.388;2023-05-10T01:21:56;13.82;;;9.25;;
79074;SDS011;68476;42.710;23.388;2023-05-10T01:32:35;8.98;;;7.43;;
79074;SDS011;68476;42.710;23.388;2023-05-10T01:35:28;9.50;;;6.93;;
79074;SDS011;68476;42.710;23.388;2023-05-10T01:43:50;8.52;;;6.82;;
79074;SDS011;68476;42.710;23.388;2023-05-10T01:46:27;7.43;;;6.00;;
79074;SDS011;68476;42.710;23.388;2023-05-10T01:48:58;7.88;;;6.32;;
79074;SDS011;68476;42.710;23.388;2023-05-10T01:51:27;8.57;;;6.68;;
79074;SDS011;68476;42.710;23.388;2023-05-10T01:54:01;7.95;;;6.35;;
79074;SDS011;68476;42.710;23.388;2023-05-10T01:56:29;8.57;;;7.28;;
79074;SDS011;68476;42.710;23.388;2023-05-10T01:58:57;7.65;;;6.72;;
79074;SDS011;68476;42.710;23.388;2023-05-10T02:01:24;8.40;;;6.70;;
79074;SDS011;68476;42.710;23.388;2023-05-10T02:03:51;7.60;;;6.10;;
79074;SDS011;68476;42.710;23.388;2023-05-10T02:06:19;8.93;;;6.40;;
79074;SDS011;68476;42.710;23.388;2023-05-10T02:08:47;8.23;;;5.75;;
79074;SDS011;68476;42.710;23.388;2023-05-10T02:11:14;8.57;;;6.53;;
79074;SDS011;68476;42.710;23.388;2023-05-10T02:13:41;7.70;;;6.90;;
79074;SDS011;68476;42.710;23.388;2023-05-10T02:16:08;7.55;;;6.22;;
79074;SDS011;68476;42.710;23.388;2023-05-10T02:18:34;7.90;;;7.00;;
79074;SDS011;68476;42.710;23.388;2023-05-10T02:21:01;6.80;;;5.93;;
79074;SDS011;68476;42.710;23.388;2023-05-10T02:23:28;9.45;;;6.55;;
79074;SDS011;68476;42.710;23.388;2023-05-10T02:25:55;7.57;;;6.10;;
79074;SDS011;68476;42.710;23.388;2023-05-10T02:28:23;7.85;;;6.20;;
79074;SDS011;68476;42.710;23.388;2023-05-10T02:30:50;7.10;;;6.15;;
79074;SDS011;68476;42.710;23.388;2023-05-10T02:33:16;7.47;;;6.13;;
79074;SDS011;68476;42.710;23.388;2023-05-10T02:35:43;7.80;;;6.00;;
79074;SDS011;68476;42.710;23.388;2023-05-10T02:38:09;6.32;;;5.15;;
79074;SDS011;68476;42.710;23.388;2023-05-10T02:40:36;8.00;;;5.60;;
79074;SDS011;68476;42.710;23.388;2023-05-10T02:43:03;7.13;;;5.05;;
79074;SDS011;68476;42.710;23.388;2023-05-10T02:45:31;6.05;;;4.50;;
79074;SDS011;68476;42.710;23.388;2023-05-10T02:47:58;9.23;;;4.80;;
79074;SDS011;68476;42.710;23.388;2023-05-10T02:50:25;7.13;;;4.55;;
79074;SDS011;68476;42.710;23.388;2023-05-10T02:52:54;6.00;;;4.75;;
79074;SDS011;68476;42.710;23.388;2023-05-10T02:55:25;7.65;;;5.25;;
79074;SDS011;68476;42.710;23.388;2023-05-10T02:57:58;6.85;;;5.63;;
79074;SDS011;68476;42.710;23.388;2023-05-10T03:00:25;8.82;;;5.82;;
79074;SDS011;68476;42.710;23.388;2023-05-10T03:02:51;6.60;;;5.63;;
79074;SDS011;68476;42.710;23.388;2023-05-10T03:05:16;7.30;;;5.93;;
79074;SDS011;68476;42.710;23.388;2023-05-10T03:07:42;8.93;;;5.88;;
79074;SDS011;68476;42.710;23.388;2023-05-10T03:10:08;7.28;;;5.30;;
79074;SDS011;68476;42.710;23.388;2023-05-10T03:20:24;10.07;;;7.07;;
79074;SDS011;68476;42.710;23.388;2023-05-10T03:23:02;8.77;;;6.95;;
79074;SDS011;68476;42.710;23.388;2023-05-10T03:25:31;7.03;;;5.75;;
79074;SDS011;68476;42.710;23.388;2023-05-10T03:27:56;9.10;;;6.45;;
79074;SDS011;68476;42.710;23.388;2023-05-10T03:30:23;8.73;;;6.85;;
79074;SDS011;68476;42.710;23.388;2023-05-10T03:32:49;8.00;;;6.05;;
79074;SDS011;68476;42.710;23.388;2023-05-10T03:35:15;8.82;;;5.68;;
79074;SDS011;68476;42.710;23.388;2023-05-10T03:37:40;7.32;;;5.85;;
79074;SDS011;68476;42.710;23.388;2023-05-10T03:40:06;9.52;;;6.15;;
79074;SDS011;68476;42.710;23.388;2023-05-10T03:42:32;9.13;;;5.43;;
79074;SDS011;68476;42.710;23.388;2023-05-10T03:44:57;7.15;;;5.32;;
79074;SDS011;68476;42.710;23.388;2023-05-10T03:47:23;6.72;;;6.03;;
79074;SDS011;68476;42.710;23.388;2023-05-10T03:49:48;7.68;;;5.65;;
79074;SDS011;68476;42.710;23.388;2023-05-10T03:52:13;8.23;;;4.80;;
79074;SDS011;68476;42.710;23.388;2023-05-10T03:54:39;7.13;;;5.72;;
79074;SDS011;68476;42.710;23.388;2023-05-10T03:57:04;6.57;;;4.68;;
79074;SDS011;68476;42.710;23.388;2023-05-10T03:59:30;6.30;;;5.18;;
79074;SDS011;68476;42.710;23.388;2023-05-10T04:01:55;7.53;;;5.40;;
79074;SDS011;68476;42.710;23.388;2023-05-10T04:04:21;7.00;;;5.07;;
79074;SDS011;68476;42.710;23.388;2023-05-10T04:06:47;6.60;;;5.20;;
79074;SDS011;68476;42.710;23.388;2023-05-10T04:09:12;8.77;;;5.85;;
79074;SDS011;68476;42.710;23.388;2023-05-10T04:11:38;7.63;;;5.55;;
79074;SDS011;68476;42.710;23.388;2023-05-10T04:14:04;8.85;;;6.57;;
79074;SDS011;68476;42.710;23.388;2023-05-10T04:16:29;10.85;;;5.90;;
79074;SDS011;68476;42.710;23.388;2023-05-10T04:18:54;6.72;;;4.93;;
79074;SDS011;68476;42.710;23.388;2023-05-10T04:21:20;5.95;;;4.82;;
79074;SDS011;68476;42.710;23.388;2023-05-10T04:23:45;6.30;;;4.78;;
79074;SDS011;68476;42.710;23.388;2023-05-10T04:26:11;6.75;;;5.10;;
79074;SDS011;68476;42.710;23.388;2023-05-10T04:28:36;7.00;;;5.20;;
79074;SDS011;68476;42.710;23.388;2023-05-10T04:31:03;7.20;;;5.38;;
79074;SDS011;68476;42.710;23.388;2023-05-10T04:33:32;6.13;;;4.82;;
79074;SDS011;68476;42.710;23.388;2023-05-10T04:35:58;8.15;;;5.13;;
79074;SDS011;68476;42.710;23.388;2023-05-10T04:38:23;5.68;;;4.82;;
79074;SDS011;68476;42.710;23.388;2023-05-10T04:40:49;6.75;;;4.65;;
79074;SDS011;68476;42.710;23.388;2023-05-10T04:43:15;7.22;;;5.78;;
79074;SDS011;68476;42.710;23.388;2023-05-10T04:45:40;9.05;;;5.10;;
79074;SDS011;68476;42.710;23.388;2023-05-10T04:48:05;6.32;;;4.80;;
79074;SDS011;68476;42.710;23.388;2023-05-10T04:50:31;7.05;;;5.38;;
79074;SDS011;68476;42.710;23.388;2023-05-10T04:52:56;8.43;;;6.22;;
79074;SDS011;68476;42.710;23.388;2023-05-10T04:55:22;8.55;;;6.03;;
79074;SDS011;68476;42.710;23.388;2023-05-10T04:57:48;7.88;;;5.95;;
79074;SDS011;68476;42.710;23.388;2023-05-10T05:00:14;9.65;;;6.50;;
79074;SDS011;68476;42.710;23.388;2023-05-10T05:02:43;10.32;;;5.53;;
79074;SDS011;68476;42.710;23.388;2023-05-10T05:05:10;9.25;;;6.55;;
79074;SDS011;68476;42.710;23.388;2023-05-10T05:07:36;9.57;;;6.68;;
79074;SDS011;68476;42.710;23.388;2023-05-10T05:10:02;12.60;;;8.15;;
79074;SDS011;68476;42.710;23.388;2023-05-10T05:12:28;9.55;;;6.55;;
79074;SDS011;68476;42.710;23.388;2023-05-10T05:14:53;9.02;;;6.75;;
79074;SDS011;68476;42.710;23.388;2023-05-10T05:17:18;9.05;;;6.50;;
79074;SDS011;68476;42.710;23.388;2023-05-10T05:19:44;7.85;;;6.50;;
79074;SDS011;68476;42.710;23.388;2023-05-10T05:22:09;10.02;;;5.45;;
79074;SDS011;68476;42.710;23.388;2023-05-10T05:24:35;9.30;;;7.07;;
79074;SDS011;68476;42.710;23.388;2023-05-10T05:27:02;9.70;;;6.63;;
79074;SDS011;68476;42.710;23.388;2023-05-10T05:29:28;11.35;;;8.63;;
79074;SDS011;68476;42.710;23.388;2023-05-10T05:31:54;8.57;;;6.43;;
79074;SDS011;68476;42.710;23.388;2023-05-10T05:34:19;9.63;;;7.25;;
79074;SDS011;68476;42.710;23.388;2023-05-10T05:36:45;9.38;;;6.22;;
79074;SDS011;68476;42.710;23.388;2023-05-10T05:39:11;13.00;;;7.35;;
79074;SDS011;68476;42.710;23.388;2023-05-10T05:41:36;10.80;;;7.03;;
79074;SDS011;68476;42.710;23.388;2023-05-10T05:44:01;11.05;;;6.85;;
79074;SDS011;68476;42.710;23.388;2023-05-10T05:46:27;9.80;;;6.78;;
79074;SDS011;68476;42.710;23.388;2023-05-10T05:48:52;10.05;;;6.25;;
79074;SDS011;68476;42.710;23.388;2023-05-10T05:51:17;8.48;;;6.47;;
79074;SDS011;68476;42.710;23.388;2023-05-10T05:53:43;8.60;;;6.50;;
79074;SDS011;68476;42.710;23.388;2023-05-10T05:56:08;9.77;;;6.90;;
79074;SDS011;68476;42.710;23.388;2023-05-10T05:58:34;9.63;;;6.93;;
79074;SDS011;68476;42.710;23.388;2023-05-10T06:01:00;8.88;;;6.70;;
79074;SDS011;68476;42.710;23.388;2023-05-10T06:03:25;8.32;;;6.30;;
79074;SDS011;68476;42.710;23.388;2023-05-10T06:05:50;9.32;;;5.93;;
79074;SDS011;68476;42.710;23.388;2023-05-10T06:08:16;7.90;;;5.72;;
79074;SDS011;68476;42.710;23.388;2023-05-10T06:10:41;8.93;;;6.35;;
79074;SDS011;68476;42.710;23.388;2023-05-10T06:13:06;8.57;;;6.25;;
79074;SDS011;68476;42.710;23.388;2023-05-10T06:15:32;10.00;;;6.13;;
79074;SDS011;68476;42.710;23.388;2023-05-10T06:17:57;6.53;;;5.45;;
79074;SDS011;68476;42.710;23.388;2023-05-10T06:20:23;7.50;;;5.82;;
79074;SDS011;68476;42.710;23.388;2023-05-10T06:22:48;9.05;;;5.32;;
79074;SDS011;68476;42.710;23.388;2023-05-10T06:25:13;6.78;;;5.47;;
79074;SDS011;68476;42.710;23.388;2023-05-10T06:27:39;7.05;;;5.18;;
79074;SDS011;68476;42.710;23.388;2023-05-10T06:30:05;9.18;;;6.43;;
79074;SDS011;68476;42.710;23.388;2023-05-10T06:32:31;8.68;;;6.47;;
79074;SDS011;68476;42.710;23.388;2023-05-10T06:34:56;8.90;;;5.35;;
79074;SDS011;68476;42.710;23.388;2023-05-10T06:37:22;10.05;;;5.93;;
79074;SDS011;68476;42.710;23.388;2023-05-10T06:39:47;7.60;;;5.68;;
79074;SDS011;68476;42.710;23.388;2023-05-10T06:42:13;6.85;;;4.68;;
79074;SDS011;68476;42.710;23.388;2023-05-10T06:44:38;8.13;;;5.60;;
79074;SDS011;68476;42.710;23.388;2023-05-10T06:47:04;8.02;;;5.82;;
79074;SDS011;68476;42.710;23.388;2023-05-10T06:49:29;7.88;;;5.45;;
79074;SDS011;68476;42.710;23.388;2023-05-10T06:51:55;7.07;;;5.40;;
79074;SDS011;68476;42.710;23.388;2023-05-10T06:54:21;7.97;;;4.90;;
79074;SDS011;68476;42.710;23.388;2023-05-10T06:56:48;8.20;;;5.82;;
79074;SDS011;68476;42.710;23.388;2023-05-10T06:59:13;7.18;;;5.75;;
79074;SDS011;68476;42.710;23.388;2023-05-10T07:01:40;7.60;;;6.63;;
79074;SDS011;68476;42.710;23.388;2023-05-10T07:04:05;7.95;;;5.47;;
79074;SDS011;68476;42.710;23.388;2023-05-10T07:06:32;7.57;;;5.35;;
79074;SDS011;68476;42.710;23.388;2023-05-10T07:08:58;7.57;;;5.80;;
79074;SDS011;68476;42.710;23.388;2023-05-10T07:11:24;9.60;;;5.75;;
79074;SDS011;68476;42.710;23.388;2023-05-10T07:13:49;9.55;;;5.15;;
79074;SDS011;68476;42.710;23.388;2023-05-10T07:16:14;7.70;;;5.60;;
79074;SDS011;68476;42.710;23.388;2023-05-10T07:18:40;7.88;;;6.28;;
79074;SDS011;68476;42.710;23.388;2023-05-10T07:21:05;7.20;;;5.05;;
79074;SDS011;68476;42.710;23.388;2023-05-10T07:23:31;9.73;;;5.38;;
79074;SDS011;68476;42.710;23.388;2023-05-10T07:25:56;9.25;;;5.00;;
79074;SDS011;68476;42.710;23.388;2023-05-10T07:28:22;6.85;;;5.25;;
79074;SDS011;68476;42.710;23.388;2023-05-10T07:30:49;5.93;;;5.00;;
79074;SDS011;68476;42.710;23.388;2023-05-10T07:33:14;7.20;;;5.00;;
79074;SDS011;68476;42.710;23.388;2023-05-10T07:35:40;7.60;;;5.85;;
79074;SDS011;68476;42.710;23.388;2023-05-10T07:38:06;6.72;;;5.90;;
79074;SDS011;68476;42.710;23.388;2023-05-10T07:40:32;9.27;;;5.60;;
79074;SDS011;68476;42.710;23.388;2023-05-10T07:42:57;7.55;;;5.38;;
79074;SDS011;68476;42.710;23.388;2023-05-10T07:45:23;6.75;;;5.05;;
79074;SDS011;68476;42.710;23.388;2023-05-10T07:47:48;6.72;;;5.32;;
79074;SDS011;68476;42.710;23.388;2023-05-10T07:50:14;8.10;;;5.45;;
79074;SDS011;68476;42.710;23.388;2023-05-10T07:52:40;7.57;;;5.72;;
79074;SDS011;68476;42.710;23.388;2023-05-10T07:55:06;9.45;;;5.95;;
79074;SDS011;68476;42.710;23.388;2023-05-10T07:57:33;6.78;;;5.63;;
79074;SDS011;68476;42.710;23.388;2023-05-10T07:59:58;7.75;;;5.78;;
79074;SDS011;68476;42.710;23.388;2023-05-10T08:02:24;7.00;;;5.30;;
79074;SDS011;68476;42.710;23.388;2023-05-10T08:04:50;7.88;;;7.03;;
79074;SDS011;68476;42.710;23.388;2023-05-10T08:07:15;7.25;;;5.55;;
79074;SDS011;68476;42.710;23.388;2023-05-10T08:09:41;7.03;;;5.75;;
79074;SDS011;68476;42.710;23.388;2023-05-10T08:12:06;6.88;;;5.72;;
79074;SDS011;68476;42.710;23.388;2023-05-10T08:14:32;7.35;;;5.63;;
79074;SDS011;68476;42.710;23.388;2023-05-10T08:16:57;7.97;;;6.10;;
79074;SDS011;68476;42.710;23.388;2023-05-10T08:19:22;8.60;;;6.80;;
79074;SDS011;68476;42.710;23.388;2023-05-10T08:21:48;7.75;;;6.47;;
79074;SDS011;68476;42.710;23.388;2023-05-10T08:24:14;7.53;;;6.30;;
79074;SDS011;68476;42.710;23.388;2023-05-10T08:26:39;6.85;;;5.93;;
79074;SDS011;68476;42.710;23.388;2023-05-10T08:29:05;8.35;;;5.88;;
79074;SDS011;68476;42.710;23.388;2023-05-10T08:31:30;9.70;;;5.78;;
79074;SDS011;68476;42.710;23.388;2023-05-10T08:33:56;7.55;;;5.60;;
79074;SDS011;68476;42.710;23.388;2023-05-10T08:36:21;6.55;;;5.70;;
79074;SDS011;68476;42.710;23.388;2023-05-10T08:38:52;8.18;;;5.80;;
79074;SDS011;68476;42.710;23.388;2023-05-10T08:41:19;7.38;;;5.75;;
79074;SDS011;68476;42.710;23.388;2023-05-10T08:43:46;7.80;;;7.00;;
79074;SDS011;68476;42.710;23.388;2023-05-10T08:46:13;6.57;;;5.53;;
79074;SDS011;68476;42.710;23.388;2023-05-10T08:48:43;7.40;;;5.72;;
79074;SDS011;68476;42.710;23.388;2023-05-10T08:51:09;8.30;;;6.68;;
79074;SDS011;68476;42.710;23.388;2023-05-10T08:56:04;7.28;;;6.07;;
79074;SDS011;68476;42.710;23.388;2023-05-10T08:58:30;7.97;;;6.00;;
79074;SDS011;68476;42.710;23.388;2023-05-10T09:00:55;7.15;;;5.50;;
79074;SDS011;68476;42.710;23.388;2023-05-10T09:03:22;7.60;;;5.60;;
79074;SDS011;68476;42.710;23.388;2023-05-10T09:05:48;7.10;;;5.53;;
79074;SDS011;68476;42.710;23.388;2023-05-10T09:08:14;7.03;;;5.80;;
79074;SDS011;68476;42.710;23.388;2023-05-10T09:10:42;9.63;;;6.82;;
79074;SDS011;68476;42.710;23.388;2023-05-10T09:13:09;7.88;;;6.07;;
79074;SDS011;68476;42.710;23.388;2023-05-10T09:15:36;9.65;;;6.88;;
79074;SDS011;68476;42.710;23.388;2023-05-10T09:18:01;10.55;;;6.60;;
79074;SDS011;68476;42.710;23.388;2023-05-10T09:20:27;8.98;;;6.53;;
79074;SDS011;68476;42.710;23.388;2023-05-10T09:22:53;9.88;;;6.95;;
79074;SDS011;68476;42.710;23.388;2023-05-10T09:25:18;8.95;;;6.50;;
79074;SDS011;68476;42.710;23.388;2023-05-10T09:27:45;8.70;;;6.38;;
79074;SDS011;68476;42.710;23.388;2023-05-10T09:30:14;8.02;;;7.10;;
79074;SDS011;68476;42.710;23.388;2023-05-10T09:32:42;9.55;;;6.57;;
79074;SDS011;68476;42.710;23.388;2023-05-10T09:35:13;8.48;;;7.10;;
79074;SDS011;68476;42.710;23.388;2023-05-10T09:37:40;8.52;;;7.25;;
79074;SDS011;68476;42.710;23.388;2023-05-10T09:40:07;7.10;;;6.20;;
79074;SDS011;68476;42.710;23.388;2023-05-10T09:45:02;7.35;;;4.85;;
79074;SDS011;68476;42.710;23.388;2023-05-10T09:47:28;7.38;;;5.68;;
79074;SDS011;68476;42.710;23.388;2023-05-10T09:49:54;7.70;;;6.22;;
79074;SDS011;68476;42.710;23.388;2023-05-10T09:52:27;7.78;;;6.03;;
79074;SDS011;68476;42.710;23.388;2023-05-10T09:54:53;8.20;;;6.25;;
79074;SDS011;68476;42.710;23.388;2023-05-10T09:57:23;7.72;;;6.00;;
79074;SDS011;68476;42.710;23.388;2023-05-10T09:59:50;7.10;;;6.20;;
79074;SDS011;68476;42.710;23.388;2023-05-10T10:02:16;8.32;;;5.97;;
79074;SDS011;68476;42.710;23.388;2023-05-10T10:04:42;7.63;;;5.85;;
79074;SDS011;68476;42.710;23.388;2023-05-10T10:07:08;9.85;;;6.32;;
79074;SDS011;68476;42.710;23.388;2023-05-10T10:09:34;6.45;;;5.80;;
79074;SDS011;68476;42.710;23.388;2023-05-10T10:12:00;5.82;;;4.60;;
79074;SDS011;68476;42.710;23.388;2023-05-10T10:14:29;7.05;;;4.70;;
79074;SDS011;68476;42.710;23.388;2023-05-10T10:16:55;8.48;;;5.88;;
79074;SDS011;68476;42.710;23.388;2023-05-10T10:19:21;6.50;;;4.68;;
79074;SDS011;68476;42.710;23.388;2023-05-10T10:21:50;6.88;;;5.78;;
79074;SDS011;68476;42.710;23.388;2023-05-10T10:24:15;5.97;;;4.68;;
79074;SDS011;68476;42.710;23.388;2023-05-10T10:26:41;6.70;;;5.45;;
79074;SDS011;68476;42.710;23.388;2023-05-10T10:29:21;6.35;;;5.65;;
79074;SDS011;68476;42.710;23.388;2023-05-10T10:31:56;8.77;;;5.22;;
79074;SDS011;68476;42.710;23.388;2023-05-10T10:34:33;8.38;;;5.45;;
79074;SDS011;68476;42.710;23.388;2023-05-10T10:37:03;8.15;;;4.85;;
79074;SDS011;68476;42.710;23.388;2023-05-10T10:39:29;6.20;;;4.88;;
79074;SDS011;68476;42.710;23.388;2023-05-10T10:41:56;8.27;;;5.07;;
79074;SDS011;68476;42.710;23.388;2023-05-10T10:47:07;7.43;;;4.60;;
79074;SDS011;68476;42.710;23.388;2023-05-10T10:54:51;9.10;;;4.70;;
79074;SDS011;68476;42.710;23.388;2023-05-10T10:57:18;6.78;;;4.88;;
79074;SDS011;68476;42.710;23.388;2023-05-10T10:59:44;5.10;;;4.22;;
79074;SDS011;68476;42.710;23.388;2023-05-10T11:02:17;5.90;;;4.70;;
79074;SDS011;68476;42.710;23.388;2023-05-10T11:05:00;6.35;;;4.82;;
79074;SDS011;68476;42.710;23.388;2023-05-10T11:07:52;5.35;;;4.78;;
79074;SDS011;68476;42.710;23.388;2023-05-10T11:10:20;6.68;;;4.55;;
79074;SDS011;68476;42.710;23.388;2023-05-10T11:15:31;7.85;;;4.63;;
79074;SDS011;68476;42.710;23.388;2023-05-10T11:17:57;5.75;;;4.55;;
79074;SDS011;68476;42.710;23.388;2023-05-10T11:20:23;7.13;;;4.65;;
79074;SDS011;68476;42.710;23.388;2023-05-10T11:22:58;5.82;;;4.38;;
79074;SDS011;68476;42.710;23.388;2023-05-10T11:25:40;6.00;;;4.30;;
79074;SDS011;68476;42.710;23.388;2023-05-10T11:28:09;6.15;;;4.72;;
79074;SDS011;68476;42.710;23.388;2023-05-10T11:30:36;6.20;;;4.10;;
79074;SDS011;68476;42.710;23.388;2023-05-10T11:33:02;6.60;;;4.30;;
79074;SDS011;68476;42.710;23.388;2023-05-10T11:35:28;7.38;;;4.40;;
79074;SDS011;68476;42.710;23.388;2023-05-10T11:37:53;6.65;;;4.70;;
79074;SDS011;68476;42.710;23.388;2023-05-10T11:40:20;6.38;;;4.68;;
79074;SDS011;68476;42.710;23.388;2023-05-10T11:42:48;5.85;;;4.45;;
79074;SDS011;68476;42.710;23.388;2023-05-10T11:45:14;7.07;;;4.47;;
79074;SDS011;68476;42.710;23.388;2023-05-10T11:47:39;9.40;;;5.05;;
79074;SDS011;68476;42.710;23.388;2023-05-10T11:50:07;6.57;;;5.35;;
79074;SDS011;68476;42.710;23.388;2023-05-10T11:52:36;7.43;;;5.05;;
79074;SDS011;68476;42.710;23.388;2023-05-10T11:55:05;7.90;;;5.78;;
79074;SDS011;68476;42.710;23.388;2023-05-10T11:57:30;9.15;;;5.65;;
79074;SDS011;68476;42.710;23.388;2023-05-10T11:59:56;8.68;;;5.45;;
79074;SDS011;68476;42.710;23.388;2023-05-10T12:02:22;7.55;;;5.18;;
79074;SDS011;68476;42.710;23.388;2023-05-10T12:04:48;7.43;;;5.47;;
79074;SDS011;68476;42.710;23.388;2023-05-10T12:07:15;6.63;;;5.22;;
79074;SDS011;68476;42.710;23.388;2023-05-10T12:09:44;6.90;;;5.00;;
79074;SDS011;68476;42.710;23.388;2023-05-10T12:12:10;4.60;;;3.40;;
79074;SDS011;68476;42.710;23.388;2023-05-10T12:14:41;7.93;;;5.30;;
79074;SDS011;68476;42.710;23.388;2023-05-10T12:17:11;7.60;;;5.30;;
79074;SDS011;68476;42.710;23.388;2023-05-10T12:19:37;7.90;;;5.15;;
79074;SDS011;68476;42.710;23.388;2023-05-10T12:22:06;10.50;;;6.05;;
79074;SDS011;68476;42.710;23.388;2023-05-10T12:24:36;7.03;;;5.03;;
79074;SDS011;68476;42.710;23.388;2023-05-10T12:27:07;8.38;;;5.10;;
79074;SDS011;68476;42.710;23.388;2023-05-10T12:29:33;7.38;;;5.55;;
79074;SDS011;68476;42.710;23.388;2023-05-10T12:31:59;9.32;;;5.68;;
79074;SDS011;68476;42.710;23.388;2023-05-10T12:34:32;7.03;;;5.28;;
79074;SDS011;68476;42.710;23.388;2023-05-10T12:36:59;8.15;;;5.50;;
79074;SDS011;68476;42.710;23.388;2023-05-10T12:39:25;6.85;;;4.43;;
79074;SDS011;68476;42.710;23.388;2023-05-10T12:41:50;8.20;;;5.88;;
79074;SDS011;68476;42.710;23.388;2023-05-10T12:44:16;6.68;;;4.07;;
79074;SDS011;68476;42.710;23.388;2023-05-10T12:46:42;5.55;;;3.90;;
79074;SDS011;68476;42.710;23.388;2023-05-10T12:49:08;8.85;;;4.75;;
79074;SDS011;68476;42.710;23.388;2023-05-10T12:51:33;6.00;;;4.57;;
79074;SDS011;68476;42.710;23.388;2023-05-10T12:53:59;6.63;;;4.78;;
79074;SDS011;68476;42.710;23.388;2023-05-10T12:56:24;6.55;;;4.22;;
79074;SDS011;68476;42.710;23.388;2023-05-10T12:58:49;6.30;;;4.70;;
79074;SDS011;68476;42.710;23.388;2023-05-10T13:01:15;6.22;;;5.03;;
79074;SDS011;68476;42.710;23.388;2023-05-10T13:03:41;7.07;;;5.10;;
79074;SDS011;68476;42.710;23.388;2023-05-10T13:06:08;6.43;;;5.00;;
79074;SDS011;68476;42.710;23.388;2023-05-10T13:08:33;7.18;;;4.65;;
79074;SDS011;68476;42.710;23.388;2023-05-10T13:10:59;8.23;;;5.13;;
79074;SDS011;68476;42.710;23.388;2023-05-10T13:13:25;8.07;;;4.82;;
79074;SDS011;68476;42.710;23.388;2023-05-10T13:15:51;7.68;;;5.65;;
79074;SDS011;68476;42.710;23.388;2023-05-10T13:18:16;12.38;;;5.40;;
79074;SDS011;68476;42.710;23.388;2023-05-10T13:20:42;9.07;;;4.63;;
79074;SDS011;68476;42.710;23.388;2023-05-10T13:23:09;8.15;;;5.60;;
79074;SDS011;68476;42.710;23.388;2023-05-10T13:25:35;7.35;;;4.60;;
79074;SDS011;68476;42.710;23.388;2023-05-10T13:28:00;9.48;;;6.03;;
79074;SDS011;68476;42.710;23.388;2023-05-10T13:30:26;9.48;;;5.97;;
79074;SDS011;68476;42.710;23.388;2023-05-10T13:32:51;7.55;;;5.40;;
79074;SDS011;68476;42.710;23.388;2023-05-10T13:35:17;8.20;;;5.22;;
79074;SDS011;68476;42.710;23.388;2023-05-10T13:37:42;7.63;;;5.25;;
79074;SDS011;68476;42.710;23.388;2023-05-10T13:40:08;7.00;;;5.32;;
79074;SDS011;68476;42.710;23.388;2023-05-10T13:42:33;8.10;;;5.30;;
79074;SDS011;68476;42.710;23.388;2023-05-10T13:44:59;7.30;;;5.53;;
79074;SDS011;68476;42.710;23.388;2023-05-10T13:47:26;6.30;;;3.58;;
79074;SDS011;68476;42.710;23.388;2023-05-10T13:49:51;5.78;;;4.28;;
79074;SDS011;68476;42.710;23.388;2023-05-10T13:52:17;6.22;;;4.97;;
79074;SDS011;68476;42.710;23.388;2023-05-10T13:54:43;7.20;;;5.40;;
79074;SDS011;68476;42.710;23.388;2023-05-10T13:57:08;7.30;;;5.43;;
79074;SDS011;68476;42.710;23.388;2023-05-10T13:59:34;5.88;;;4.68;;
79074;SDS011;68476;42.710;23.388;2023-05-10T14:02:00;6.43;;;4.45;;
79074;SDS011;68476;42.710;23.388;2023-05-10T14:04:27;7.93;;;5.38;;
79074;SDS011;68476;42.710;23.388;2023-05-10T14:06:53;4.53;;;3.80;;
79074;SDS011;68476;42.710;23.388;2023-05-10T14:09:18;8.60;;;5.75;;
79074;SDS011;68476;42.710;23.388;2023-05-10T14:11:44;6.65;;;5.30;;
79074;SDS011;68476;42.710;23.388;2023-05-10T14:14:10;8.85;;;5.50;;
79074;SDS011;68476;42.710;23.388;2023-05-10T14:16:36;6.35;;;4.07;;
79074;SDS011;68476;42.710;23.388;2023-05-10T14:19:01;6.75;;;5.13;;
79074;SDS011;68476;42.710;23.388;2023-05-10T14:21:27;5.78;;;4.53;;
79074;SDS011;68476;42.710;23.388;2023-05-10T14:23:56;8.27;;;5.85;;
79074;SDS011;68476;42.710;23.388;2023-05-10T14:26:22;8.75;;;5.95;;
79074;SDS011;68476;42.710;23.388;2023-05-10T14:28:47;7.93;;;6.07;;
79074;SDS011;68476;42.710;23.388;2023-05-10T14:31:13;5.55;;;4.35;;
79074;SDS011;68476;42.710;23.388;2023-05-10T14:33:41;7.07;;;5.53;;
79074;SDS011;68476;42.710;23.388;2023-05-10T14:36:07;6.82;;;5.22;;
79074;SDS011;68476;42.710;23.388;2023-05-10T14:38:33;8.77;;;5.85;;
79074;SDS011;68476;42.710;23.388;2023-05-10T14:40:59;7.55;;;5.15;;
79074;SDS011;68476;42.710;23.388;2023-05-10T14:43:24;8.50;;;5.38;;
79074;SDS011;68476;42.710;23.388;2023-05-10T14:45:50;7.10;;;5.75;;
79074;SDS011;68476;42.710;23.388;2023-05-10T14:48:15;9.70;;;4.80;;
79074;SDS011;68476;42.710;23.388;2023-05-10T14:50:42;9.07;;;5.88;;
79074;SDS011;68476;42.710;23.388;2023-05-10T14:56:01;6.32;;;5.03;;
79074;SDS011;68476;42.710;23.388;2023-05-10T14:58:27;9.63;;;5.72;;
79074;SDS011;68476;42.710;23.388;2023-05-10T15:00:53;5.88;;;4.65;;
79074;SDS011;68476;42.710;23.388;2023-05-10T15:03:19;5.32;;;4.50;;
79074;SDS011;68476;42.710;23.388;2023-05-10T15:05:44;7.88;;;4.95;;
79074;SDS011;68476;42.710;23.388;2023-05-10T15:08:10;7.18;;;4.82;;
79074;SDS011;68476;42.710;23.388;2023-05-10T15:10:37;8.90;;;6.15;;